createdAt,value
2022-12-18T00:00:33.975Z,10.93
2022-12-18T00:03:02.474Z,12.68
2022-12-18T00:05:31.050Z,9.98
2022-12-18T00:08:02.988Z,9.63
2022-12-18T00:10:39.350Z,9.27
2022-12-18T00:13:10.052Z,8.30
2022-12-18T00:15:42.166Z,5.40
2022-12-18T00:18:13.788Z,8.23
2022-12-18T00:20:46.820Z,9.60
2022-12-18T00:23:15.263Z,9.40
2022-12-18T00:25:45.055Z,8.32
2022-12-18T00:28:13.623Z,9.52
2022-12-18T00:30:42.085Z,9.63
2022-12-18T00:33:10.461Z,11.27
2022-12-18T00:35:41.004Z,12.93
2022-12-18T00:38:09.475Z,9.77
2022-12-18T00:40:37.945Z,6.93
2022-12-18T00:43:06.767Z,7.55
2022-12-18T00:45:38.230Z,9.25
2022-12-18T00:48:07.333Z,10.02
2022-12-18T00:50:38.399Z,9.38
2022-12-18T00:53:06.893Z,6.85
2022-12-18T00:55:39.797Z,9.15
2022-12-18T00:58:11.757Z,9.50
2022-12-18T01:00:40.560Z,7.05
2022-12-18T01:03:15.579Z,12.77
2022-12-18T01:05:46.493Z,9.75
2022-12-18T01:08:15.110Z,8.50
2022-12-18T01:10:45.545Z,11.07
2022-12-18T01:13:18.329Z,9.75
2022-12-18T01:15:50.853Z,10.05
2022-12-18T01:18:19.251Z,6.90
2022-12-18T01:20:47.587Z,9.90
2022-12-18T01:23:15.990Z,8.02
2022-12-18T01:25:44.458Z,10.93
2022-12-18T01:28:12.844Z,9.27
2022-12-18T01:30:44.195Z,6.45
2022-12-18T01:33:12.575Z,7.30
2022-12-18T01:35:43.417Z,9.93
2022-12-18T01:38:12.042Z,8.40
2022-12-18T01:40:43.012Z,12.48
2022-12-18T01:43:12.054Z,8.60
2022-12-18T01:45:43.821Z,10.18
2022-12-18T01:48:16.085Z,8.13
2022-12-18T01:50:51.248Z,10.10
2022-12-18T01:53:23.066Z,8.38
2022-12-18T01:55:55.305Z,6.97
2022-12-18T01:58:28.226Z,7.18
2022-12-18T02:01:01.446Z,5.78
2022-12-18T02:03:31.242Z,9.10
2022-12-18T02:06:03.244Z,9.45
2022-12-18T02:08:36.859Z,4.53
2022-12-18T02:11:11.102Z,7.32
2022-12-18T02:13:48.099Z,8.48
2022-12-18T02:16:24.879Z,9.38
2022-12-18T02:19:02.362Z,10.48
2022-12-18T02:21:37.998Z,8.02
2022-12-18T02:24:18.159Z,7.25
2022-12-18T02:26:53.569Z,9.35
2022-12-18T02:29:28.528Z,6.90
2022-12-18T02:32:06.862Z,6.32
2022-12-18T02:34:37.468Z,6.85
2022-12-18T02:37:09.469Z,5.38
2022-12-18T02:39:40.970Z,8.02
2022-12-18T02:42:15.675Z,8.13
2022-12-18T02:44:48.716Z,8.30
2022-12-18T02:47:24.053Z,7.78
2022-12-18T02:50:00.160Z,5.20
2022-12-18T02:52:37.521Z,10.40
2022-12-18T02:55:17.032Z,6.72
2022-12-18T02:57:56.566Z,8.45
2022-12-18T03:00:33.408Z,7.15
2022-12-18T03:03:07.525Z,9.65
2022-12-18T03:05:40.189Z,8.45
2022-12-18T03:08:11.295Z,7.68
2022-12-18T03:10:45.139Z,6.97
2022-12-18T03:13:17.570Z,7.57
2022-12-18T03:15:48.582Z,6.55
2022-12-18T03:18:20.435Z,7.47
2022-12-18T03:20:50.235Z,8.20
2022-12-18T03:23:26.424Z,7.57
2022-12-18T03:26:01.877Z,8.52
2022-12-18T03:28:36.643Z,8.15
2022-12-18T03:31:07.561Z,6.13
2022-12-18T03:33:41.011Z,8.30
2022-12-18T03:36:10.286Z,11.18
2022-12-18T03:38:39.841Z,7.75
2022-12-18T03:41:17.826Z,8.30
2022-12-18T03:44:12.621Z,5.82
2022-12-18T03:46:49.689Z,6.90
2022-12-18T03:51:55.557Z,5.25
2022-12-18T03:54:24.546Z,6.25
2022-12-18T03:57:05.102Z,4.65
2022-12-18T03:59:37.798Z,6.30
2022-12-18T04:02:09.583Z,6.35
2022-12-18T04:04:42.542Z,5.05
2022-12-18T04:07:10.941Z,10.95
2022-12-18T04:09:41.558Z,5.15
2022-12-18T04:12:10.970Z,7.03
2022-12-18T04:14:41.301Z,7.40
2022-12-18T04:17:11.371Z,7.63
2022-12-18T04:19:39.811Z,8.68
2022-12-18T04:22:11.882Z,4.75
2022-12-18T04:24:45.200Z,9.07
2022-12-18T04:27:24.524Z,7.28
2022-12-18T04:29:54.520Z,7.15
2022-12-18T04:32:24.765Z,5.25
2022-12-18T04:34:53.350Z,9.15
2022-12-18T04:37:25.260Z,5.50
2022-12-18T04:39:54.123Z,6.28
2022-12-18T04:42:29.020Z,5.65
2022-12-18T04:44:58.693Z,8.52
2022-12-18T04:47:27.070Z,5.95
2022-12-18T04:49:55.485Z,8.75
2022-12-18T04:52:26.751Z,6.38
2022-12-18T04:54:55.066Z,6.03
2022-12-18T04:57:25.612Z,5.05
2022-12-18T04:59:54.122Z,7.93
2022-12-18T05:02:23.956Z,6.57
2022-12-18T05:04:52.361Z,7.35
2022-12-18T05:07:20.739Z,6.68
2022-12-18T05:09:49.077Z,7.55
2022-12-18T05:12:17.420Z,6.65
2022-12-18T05:14:48.464Z,7.68
2022-12-18T05:17:16.840Z,6.43
2022-12-18T05:19:47.841Z,7.53
2022-12-18T05:22:18.090Z,12.48
2022-12-18T05:24:46.638Z,7.50
2022-12-18T05:27:15.001Z,5.85
2022-12-18T05:29:45.251Z,6.30
2022-12-18T05:32:15.227Z,7.85
2022-12-18T05:34:43.950Z,10.45
2022-12-18T05:37:13.849Z,6.75
2022-12-18T05:39:42.257Z,7.30
2022-12-18T05:42:11.264Z,8.27
2022-12-18T05:44:39.581Z,8.32
2022-12-18T05:47:07.918Z,7.55
2022-12-18T05:49:36.286Z,5.45
2022-12-18T05:52:04.659Z,6.53
2022-12-18T05:54:34.734Z,5.50
2022-12-18T05:57:03.224Z,8.38
2022-12-18T05:59:31.726Z,9.23
2022-12-18T06:02:00.303Z,6.97
2022-12-18T06:04:34.924Z,6.07
2022-12-18T06:07:06.419Z,5.38
2022-12-18T06:09:36.273Z,8.27
2022-12-18T06:12:08.435Z,6.38
2022-12-18T06:14:36.823Z,7.55
2022-12-18T06:17:08.941Z,10.13
2022-12-18T06:19:37.536Z,7.18
2022-12-18T06:22:06.215Z,7.88
2022-12-18T06:24:36.009Z,6.03
2022-12-18T06:27:04.619Z,6.75
2022-12-18T06:29:33.034Z,9.57
2022-12-18T06:32:05.309Z,5.93
2022-12-18T06:34:33.813Z,5.30
2022-12-18T06:37:03.443Z,6.30
2022-12-18T06:39:32.024Z,6.45
2022-12-18T06:42:05.390Z,7.18
2022-12-18T06:44:36.763Z,8.50
2022-12-18T06:47:06.348Z,4.38
2022-12-18T06:49:34.791Z,6.43
2022-12-18T06:52:03.236Z,9.95
2022-12-18T06:54:31.608Z,6.32
2022-12-18T06:57:01.447Z,4.45
2022-12-18T06:59:30.299Z,7.40
2022-12-18T07:01:58.833Z,8.40
2022-12-18T07:04:30.811Z,6.60
2022-12-18T07:06:59.576Z,6.47
2022-12-18T07:09:30.860Z,7.05
2022-12-18T07:11:59.327Z,5.88
2022-12-18T07:14:35.546Z,5.13
2022-12-18T07:17:04.678Z,6.45
2022-12-18T07:19:35.962Z,8.40
2022-12-18T07:22:04.629Z,5.45
2022-12-18T07:24:33.161Z,5.53
2022-12-18T07:27:01.617Z,5.85
2022-12-18T07:29:33.128Z,3.20
2022-12-18T07:32:01.573Z,5.97
2022-12-18T07:34:30.273Z,5.68
2022-12-18T07:36:58.975Z,5.43
2022-12-18T07:39:27.376Z,7.97
2022-12-18T07:42:09.544Z,5.72
2022-12-18T07:44:40.505Z,7.00
2022-12-18T07:47:12.049Z,6.82
2022-12-18T07:49:41.010Z,6.20
2022-12-18T07:52:10.892Z,5.50
2022-12-18T07:54:39.291Z,4.47
2022-12-18T07:57:27.419Z,8.68
2022-12-18T08:00:01.859Z,5.65
2022-12-18T08:02:43.252Z,6.97
2022-12-18T08:05:11.934Z,7.88
2022-12-18T08:07:40.312Z,7.80
2022-12-18T08:10:09.837Z,7.47
2022-12-18T08:12:38.193Z,5.72
2022-12-18T08:15:09.231Z,6.93
2022-12-18T08:17:40.728Z,8.07
2022-12-18T08:20:10.379Z,6.97
2022-12-18T08:22:40.091Z,6.60
2022-12-18T08:25:09.347Z,5.07
2022-12-18T08:27:37.929Z,5.57
2022-12-18T08:30:12.177Z,5.28
2022-12-18T08:32:40.550Z,6.05
2022-12-18T08:35:18.738Z,6.05
2022-12-18T08:37:47.366Z,5.72
2022-12-18T08:40:15.916Z,6.05
2022-12-18T08:43:01.947Z,5.78
2022-12-18T08:45:37.703Z,5.95
2022-12-18T08:48:06.458Z,6.22
2022-12-18T08:50:37.509Z,5.63
2022-12-18T08:53:06.009Z,6.07
2022-12-18T08:55:35.158Z,5.38
2022-12-18T08:58:06.163Z,6.35
2022-12-18T09:00:38.971Z,6.15
2022-12-18T09:03:09.830Z,5.38
2022-12-18T09:05:40.096Z,5.50
2022-12-18T09:08:11.517Z,6.22
2022-12-18T09:10:44.652Z,7.80
2022-12-18T09:13:14.560Z,7.43
2022-12-18T09:15:46.551Z,8.00
2022-12-18T09:18:16.729Z,6.18
2022-12-18T09:20:45.612Z,4.70
2022-12-18T09:23:14.665Z,2.30
2022-12-18T09:25:45.702Z,6.45
2022-12-18T09:28:21.150Z,6.03
2022-12-18T09:30:52.201Z,6.22
2022-12-18T09:33:25.592Z,7.53
2022-12-18T09:35:57.129Z,5.07
2022-12-18T09:38:25.556Z,5.25
2022-12-18T09:40:56.364Z,5.47
2022-12-18T09:43:31.459Z,4.68
2022-12-18T09:46:05.953Z,5.70
2022-12-18T09:48:38.100Z,4.47
2022-12-18T09:51:13.549Z,7.43
2022-12-18T09:53:43.941Z,3.97
2022-12-18T09:56:15.213Z,5.78
2022-12-18T09:58:49.128Z,4.75
2022-12-18T10:01:23.939Z,5.75
2022-12-18T10:03:54.125Z,4.82
2022-12-18T10:06:24.742Z,8.88
2022-12-18T10:08:57.109Z,6.07
2022-12-18T10:11:34.841Z,5.70
2022-12-18T10:14:09.352Z,5.90
2022-12-18T10:16:51.319Z,7.50
2022-12-18T10:19:40.991Z,4.18
2022-12-18T10:22:18.560Z,6.18
2022-12-18T10:24:53.580Z,7.40
2022-12-18T10:27:25.892Z,5.78
2022-12-18T10:29:59.521Z,4.05
2022-12-18T10:32:31.212Z,6.60
2022-12-18T10:35:02.329Z,7.57
2022-12-18T10:37:32.320Z,5.97
2022-12-18T10:40:21.866Z,5.63
2022-12-18T10:43:08.542Z,5.50
2022-12-18T10:45:36.947Z,5.18
2022-12-18T10:48:22.540Z,6.38
2022-12-18T10:53:42.826Z,3.63
2022-12-18T10:56:14.427Z,6.15
2022-12-18T10:58:43.375Z,5.90
2022-12-18T11:01:17.926Z,11.50
2022-12-18T11:03:49.040Z,5.30
2022-12-18T11:06:22.776Z,5.88
2022-12-18T11:09:09.345Z,3.63
2022-12-18T11:11:41.499Z,4.05
2022-12-18T11:14:22.424Z,4.28
2022-12-18T11:19:44.835Z,4.97
2022-12-18T11:22:22.530Z,5.75
2022-12-18T11:25:29.629Z,5.05
2022-12-18T11:27:53.537Z,6.10
2022-12-18T11:30:30.274Z,4.72
2022-12-18T11:33:04.791Z,5.22
2022-12-18T11:35:59.676Z,6.20
2022-12-18T11:38:36.332Z,4.68
2022-12-18T11:41:07.861Z,5.38
2022-12-18T11:43:39.959Z,6.65
2022-12-18T11:46:17.657Z,6.80
2022-12-18T11:48:52.545Z,3.42
2022-12-18T11:51:31.147Z,5.68
2022-12-18T11:54:02.880Z,4.18
2022-12-18T11:56:35.475Z,3.45
2022-12-18T11:59:14.204Z,2.97
2022-12-18T12:01:54.369Z,4.22
2022-12-18T12:04:44.759Z,6.10
2022-12-18T12:07:25.950Z,4.18
2022-12-18T12:10:03.464Z,5.50
2022-12-18T12:12:48.984Z,3.78
2022-12-18T12:15:30.331Z,6.57
2022-12-18T12:18:11.092Z,4.07
2022-12-18T12:20:47.331Z,3.97
2022-12-18T12:23:27.473Z,4.60
2022-12-18T12:26:03.335Z,4.78
2022-12-18T12:29:13.419Z,4.45
2022-12-18T12:31:59.716Z,4.88
2022-12-18T12:34:34.588Z,4.05
2022-12-18T12:39:39.120Z,3.55
2022-12-18T12:42:30.387Z,3.53
2022-12-18T12:45:01.364Z,6.10
2022-12-18T12:47:38.473Z,2.00
2022-12-18T12:50:14.606Z,3.70
2022-12-18T12:52:46.873Z,5.10
2022-12-18T12:58:18.547Z,6.55
2022-12-18T13:00:56.964Z,7.68
2022-12-18T13:03:34.206Z,8.90
2022-12-18T13:06:06.278Z,8.95
2022-12-18T13:08:54.777Z,12.00
2022-12-18T13:12:00.273Z,7.10
2022-12-18T13:14:34.280Z,7.80
2022-12-18T13:17:30.425Z,13.35
2022-12-18T13:20:10.874Z,12.77
2022-12-18T13:22:40.920Z,13.68
2022-12-18T13:25:32.158Z,9.25
2022-12-18T13:28:09.494Z,7.93
2022-12-18T13:30:46.834Z,13.20
2022-12-18T13:34:24.414Z,9.82
2022-12-18T13:36:39.715Z,9.23
2022-12-18T13:39:34.321Z,15.02
2022-12-18T13:42:59.863Z,11.27
2022-12-18T13:45:50.404Z,10.05
2022-12-18T13:48:25.456Z,11.48
2022-12-18T13:50:57.675Z,9.68
2022-12-18T13:53:29.763Z,11.88
2022-12-18T13:55:58.798Z,12.63
2022-12-18T13:58:27.236Z,10.75
2022-12-18T14:00:57.860Z,10.50
2022-12-18T14:03:28.456Z,6.95
2022-12-18T14:05:59.406Z,8.27
2022-12-18T14:08:32.028Z,8.40
2022-12-18T14:11:00.470Z,7.13
2022-12-18T14:13:31.849Z,7.80
2022-12-18T14:16:06.230Z,5.82
2022-12-18T14:18:45.402Z,7.45
2022-12-18T14:21:22.863Z,7.95
2022-12-18T14:24:19.040Z,4.88
2022-12-18T14:26:50.510Z,6.23
2022-12-18T14:29:29.923Z,5.72
2022-12-18T14:32:17.967Z,6.10
2022-12-18T14:34:48.572Z,6.78
2022-12-18T14:37:22.898Z,4.97
2022-12-18T14:39:59.405Z,5.85
2022-12-18T14:42:29.360Z,7.22
2022-12-18T14:45:43.855Z,6.80
2022-12-18T14:48:23.657Z,6.55
2022-12-18T14:51:05.515Z,4.50
2022-12-18T14:53:40.719Z,5.07
2022-12-18T14:56:19.238Z,5.57
2022-12-18T14:58:51.842Z,4.10
2022-12-18T15:01:22.705Z,3.95
2022-12-18T15:03:55.107Z,3.35
2022-12-18T15:06:30.225Z,5.00
2022-12-18T15:09:01.891Z,6.57
2022-12-18T15:11:48.435Z,5.88
2022-12-18T15:14:34.262Z,6.38
2022-12-18T15:17:05.182Z,7.15
2022-12-18T15:19:45.852Z,5.45
2022-12-18T15:22:22.287Z,5.75
2022-12-18T15:24:53.182Z,5.40
2022-12-18T15:27:26.656Z,3.40
2022-12-18T15:30:24.076Z,4.30
2022-12-18T15:32:56.666Z,4.40
2022-12-18T15:35:27.189Z,6.45
2022-12-18T15:37:55.702Z,5.15
2022-12-18T15:40:25.700Z,5.03
2022-12-18T15:43:13.781Z,3.72
2022-12-18T15:45:42.413Z,5.28
2022-12-18T15:48:22.048Z,6.10
2022-12-18T15:50:52.571Z,7.43
2022-12-18T15:53:21.276Z,5.78
2022-12-18T15:56:06.994Z,6.07
2022-12-18T15:58:39.927Z,6.35
2022-12-18T16:01:10.539Z,6.38
2022-12-18T16:03:42.648Z,8.85
2022-12-18T16:06:13.288Z,5.55
2022-12-18T16:08:43.569Z,8.82
2022-12-18T16:11:40.862Z,6.68
2022-12-18T16:14:18.762Z,6.90
2022-12-18T16:16:56.208Z,8.02
2022-12-18T16:19:27.502Z,7.18
2022-12-18T16:21:59.531Z,5.65
2022-12-18T16:24:31.449Z,5.90
2022-12-18T16:27:01.572Z,8.98
2022-12-18T16:29:33.098Z,7.45
2022-12-18T16:32:02.730Z,6.60
2022-12-18T16:34:38.036Z,6.57
2022-12-18T16:37:09.459Z,6.47
2022-12-18T16:39:38.933Z,6.22
2022-12-18T16:42:13.621Z,5.35
2022-12-18T16:44:42.370Z,8.32
2022-12-18T16:47:11.763Z,6.68
2022-12-18T16:49:45.414Z,6.30
2022-12-18T16:52:16.258Z,5.35
2022-12-18T16:54:47.018Z,5.65
2022-12-18T16:57:17.334Z,4.28
2022-12-18T16:59:46.752Z,5.65
2022-12-18T17:02:19.102Z,5.28
2022-12-18T17:04:51.733Z,5.85
2022-12-18T17:07:21.609Z,4.97
2022-12-18T17:09:54.398Z,5.15
2022-12-18T17:12:23.865Z,6.03
2022-12-18T17:14:52.605Z,7.07
2022-12-18T17:17:23.312Z,5.03
2022-12-18T17:19:52.479Z,5.68
2022-12-18T17:22:23.492Z,6.90
2022-12-18T17:24:52.501Z,6.47
2022-12-18T17:27:21.032Z,3.65
2022-12-18T17:29:50.684Z,4.95
2022-12-18T17:32:22.271Z,7.03
2022-12-18T17:34:51.040Z,6.45
2022-12-18T17:37:19.408Z,5.90
2022-12-18T17:39:49.325Z,6.38
2022-12-18T17:42:17.701Z,9.02
2022-12-18T17:44:46.576Z,9.18
2022-12-18T17:47:16.359Z,7.68
2022-12-18T17:49:45.074Z,7.13
2022-12-18T17:52:16.555Z,7.63
2022-12-18T17:54:46.210Z,6.25
2022-12-18T17:57:19.470Z,7.22
2022-12-18T17:59:47.920Z,5.45
2022-12-18T18:02:17.652Z,12.13
2022-12-18T18:04:51.294Z,8.75
2022-12-18T18:07:22.786Z,7.13
2022-12-18T18:09:51.560Z,7.78
2022-12-18T18:12:40.864Z,8.85
2022-12-18T18:15:13.431Z,10.20
2022-12-18T18:17:43.533Z,6.90
2022-12-18T18:20:22.649Z,9.45
2022-12-18T18:22:51.724Z,11.10
2022-12-18T18:25:20.307Z,8.65
2022-12-18T18:27:58.841Z,6.70
2022-12-18T18:30:27.627Z,11.15
2022-12-18T18:32:59.929Z,6.43
2022-12-18T18:35:53.368Z,8.15
2022-12-18T18:38:19.830Z,6.82
2022-12-18T18:40:53.527Z,8.70
2022-12-18T18:43:24.828Z,13.05
2022-12-18T18:45:58.878Z,11.68
2022-12-18T18:48:28.764Z,12.90
2022-12-18T18:51:04.414Z,11.95
2022-12-18T18:53:33.684Z,13.70
2022-12-18T18:56:45.606Z,9.02
2022-12-18T18:58:56.307Z,10.70
2022-12-18T19:01:28.457Z,10.10
2022-12-18T19:04:07.038Z,12.52
2022-12-18T19:06:36.244Z,9.40
2022-12-18T19:09:09.245Z,10.77
2022-12-18T19:11:55.715Z,11.70
2022-12-18T19:14:28.350Z,8.23
2022-12-18T19:16:59.376Z,7.95
2022-12-18T19:19:30.304Z,10.65
2022-12-18T19:21:58.779Z,12.25
2022-12-18T19:24:27.862Z,10.93
2022-12-18T19:26:57.922Z,14.25
2022-12-18T19:29:30.821Z,14.00
2022-12-18T19:31:59.642Z,17.95
2022-12-18T19:34:28.062Z,9.57
2022-12-18T19:37:00.122Z,13.52
2022-12-18T19:39:31.454Z,10.90
2022-12-18T19:42:00.046Z,12.65
2022-12-18T19:44:32.486Z,14.80
2022-12-18T19:47:02.065Z,20.30
2022-12-18T19:49:34.057Z,10.93
2022-12-18T19:52:05.549Z,13.23
2022-12-18T19:54:36.380Z,10.32
2022-12-18T19:57:11.761Z,13.13
2022-12-18T19:59:44.223Z,13.98
2022-12-18T20:02:14.992Z,13.05
2022-12-18T20:04:43.690Z,11.38
2022-12-18T20:07:12.173Z,11.48
2022-12-18T20:09:40.825Z,13.85
2022-12-18T20:12:12.456Z,11.68
2022-12-18T20:14:45.345Z,11.93
2022-12-18T20:17:14.109Z,16.55
2022-12-18T20:19:46.616Z,17.92
2022-12-18T20:22:18.277Z,18.55
2022-12-18T20:24:46.708Z,23.33
2022-12-18T20:27:19.593Z,15.73
2022-12-18T20:29:52.544Z,14.95
2022-12-18T20:32:21.248Z,10.63
2022-12-18T20:34:49.805Z,19.50
2022-12-18T20:37:18.577Z,25.63
2022-12-18T20:39:48.596Z,11.48
2022-12-18T20:42:17.175Z,14.65
2022-12-18T20:44:47.042Z,16.63
2022-12-18T20:47:17.034Z,11.70
2022-12-18T20:49:45.869Z,14.25
2022-12-18T20:52:14.540Z,13.38
2022-12-18T20:54:43.003Z,17.33
2022-12-18T20:57:11.671Z,19.33
2022-12-18T20:59:46.239Z,14.05
2022-12-18T21:02:21.131Z,9.07
2022-12-18T21:04:51.842Z,13.50
2022-12-18T21:07:22.041Z,10.50
2022-12-18T21:09:50.520Z,12.02
2022-12-18T21:12:44.022Z,12.35
2022-12-18T21:15:22.857Z,12.88
2022-12-18T21:17:56.722Z,12.57
2022-12-18T21:20:26.485Z,16.27
2022-12-18T21:22:55.012Z,8.30
2022-12-18T21:25:27.586Z,9.57
2022-12-18T21:27:55.977Z,13.57
2022-12-18T21:30:28.621Z,7.65
2022-12-18T21:32:58.517Z,11.25
2022-12-18T21:35:27.163Z,10.85
2022-12-18T21:37:58.336Z,10.48
2022-12-18T21:40:29.350Z,6.60
2022-12-18T21:43:17.880Z,11.13
2022-12-18T21:45:46.438Z,8.10
2022-12-18T21:48:18.072Z,8.95
2022-12-18T21:50:46.622Z,8.85
2022-12-18T21:53:16.574Z,8.55
2022-12-18T21:55:45.675Z,7.60
2022-12-18T21:58:14.122Z,8.70
2022-12-18T22:00:46.998Z,5.43
2022-12-18T22:03:20.224Z,5.15
2022-12-18T22:05:52.000Z,11.18
2022-12-18T22:08:43.429Z,8.23
2022-12-18T22:11:13.876Z,9.52
2022-12-18T22:13:43.557Z,7.93
2022-12-18T22:16:11.954Z,4.97
2022-12-18T22:18:41.739Z,6.10
2022-12-18T22:21:29.324Z,5.53
2022-12-18T22:23:59.739Z,8.38
2022-12-18T22:26:31.846Z,5.70
2022-12-18T22:29:23.961Z,8.20
2022-12-18T22:31:52.514Z,5.32
2022-12-18T22:34:23.335Z,10.43
2022-12-18T22:36:52.215Z,6.80
2022-12-18T22:39:22.067Z,8.23
2022-12-18T22:41:51.043Z,4.57
2022-12-18T22:44:19.491Z,4.57
2022-12-18T22:46:59.924Z,4.70
2022-12-18T22:49:36.174Z,7.63
2022-12-18T22:52:04.760Z,2.67
2022-12-18T22:54:33.557Z,4.10
2022-12-18T22:57:02.212Z,6.13
2022-12-18T22:59:31.568Z,7.38
2022-12-18T23:01:59.997Z,4.32
2022-12-18T23:04:36.617Z,4.85
2022-12-18T23:07:09.055Z,6.05
2022-12-18T23:09:40.795Z,6.45
2022-12-18T23:12:10.912Z,3.25
2022-12-18T23:14:39.431Z,3.22
2022-12-18T23:17:07.821Z,3.08
2022-12-18T23:19:42.780Z,3.40
2022-12-18T23:22:15.476Z,5.10
2022-12-18T23:24:44.297Z,4.88
2022-12-18T23:27:15.310Z,3.05
2022-12-18T23:29:44.068Z,2.42
2022-12-18T23:32:14.064Z,3.85
2022-12-18T23:34:42.636Z,3.17
2022-12-18T23:37:11.116Z,3.35
2022-12-18T23:39:40.804Z,5.18
2022-12-18T23:42:09.220Z,4.57
2022-12-18T23:44:38.808Z,4.97
2022-12-18T23:47:08.104Z,3.22
2022-12-18T23:49:44.283Z,4.63
2022-12-18T23:52:15.758Z,3.85
2022-12-18T23:54:48.046Z,3.60
2022-12-18T23:57:17.633Z,4.53
2022-12-18T23:59:50.783Z,3.42
